Time;durP1;ratioP1;P1;durP2;ratioP2;P2;SDS_P1;SDS_P2;PMS_P1;PMS_P2;Temp;Humidity;BMP_temperature;BMP_pressure;BME280_temperature;BME280_humidity;BME280_pressure;Samples;Min_cycle;Max_cycle;Signal;HPM_P1;HPM_P2
2024/01/13 00:01:41;;;;;;;40.22;21.25;;;;;;;0.41;100.00;101670.41;5023701;28;20041;-69
2024/01/13 00:04:09;;;;;;;45.05;22.13;;;;;;;0.33;100.00;101667.66;5023268;28;20459;-71
2024/01/13 00:06:40;;;;;;;39.47;20.67;;;;;;;0.26;100.00;101663.22;5040884;28;20045;-69
2024/01/13 00:09:12;;;;;;;43.25;21.13;;;;;;;0.23;100.00;101652.75;5008967;28;20384;-70
2024/01/13 00:11:41;;;;;;;44.13;21.40;;;;;;;0.21;100.00;101644.03;5026693;28;20096;-70
2024/01/13 00:14:09;;;;;;;40.38;22.25;;;;;;;0.17;100.00;101647.44;5039440;28;20141;-70
2024/01/13 00:16:37;;;;;;;39.30;21.10;;;;;;;0.07;100.00;101627.31;5040141;28;20060;-70
2024/01/13 00:19:06;;;;;;;39.05;21.27;;;;;;;0.27;100.00;101636.31;5037717;28;20045;-70
2024/01/13 00:21:36;;;;;;;43.15;21.67;;;;;;;0.19;100.00;101621.41;5013473;28;20053;-70
2024/01/13 00:24:05;;;;;;;37.10;20.08;;;;;;;0.28;100.00;101626.78;5013047;28;20061;-69
2024/01/13 00:26:33;;;;;;;44.33;21.98;;;;;;;0.31;100.00;101621.63;5040813;28;20045;-69
2024/01/13 00:29:01;;;;;;;41.47;20.98;;;;;;;0.30;100.00;101625.94;5038092;28;20467;-70
2024/01/13 00:31:29;;;;;;;40.47;21.77;;;;;;;0.33;100.00;101619.88;5040658;28;20049;-70
2024/01/13 00:33:58;;;;;;;42.08;22.23;;;;;;;0.35;100.00;101624.28;5010497;28;20556;-70
2024/01/13 00:36:29;;;;;;;43.72;21.77;;;;;;;0.22;100.00;101624.94;5022990;28;20082;-69
2024/01/13 00:38:57;;;;;;;40.55;21.95;;;;;;;0.19;100.00;101614.47;5039895;28;20153;-69
2024/01/13 00:41:25;;;;;;;39.38;21.05;;;;;;;0.12;100.00;101602.25;5033945;28;20505;-69
2024/01/13 00:43:53;;;;;;;39.13;20.73;;;;;;;0.16;100.00;101601.41;5029935;28;20131;-70
2024/01/13 00:46:22;;;;;;;38.70;21.58;;;;;;;0.24;100.00;101606.75;5027048;28;20073;-68
2024/01/13 00:48:50;;;;;;;44.13;22.50;;;;;;;0.16;100.00;101608.38;5042401;28;20056;-71
2024/01/13 00:51:19;;;;;;;39.88;21.48;;;;;;;0.14;100.00;101608.34;5048415;28;20042;-72
2024/01/13 00:53:51;;;;;;;42.17;21.15;;;;;;;0.05;100.00;101576.94;5028048;28;20041;-70
2024/01/13 00:56:19;;;;;;;41.47;20.88;;;;;;;0.24;100.00;101598.94;5023041;28;20060;-71
2024/01/13 00:58:49;;;;;;;43.08;21.55;;;;;;;0.24;100.00;101584.16;5020200;28;20048;-71
2024/01/13 01:01:18;;;;;;;39.03;19.02;;;;;;;0.17;100.00;101590.13;5025854;28;20064;-70
2024/01/13 01:03:50;;;;;;;48.20;22.63;;;;;;;0.06;100.00;101596.94;5026993;28;20136;-70
2024/01/13 01:06:18;;;;;;;46.60;22.58;;;;;;;0.07;100.00;101590.88;5022341;28;21547;-71
2024/01/13 01:08:48;;;;;;;48.65;22.88;;;;;;;0.14;100.00;101595.31;5036048;28;20049;-70
2024/01/13 01:11:19;;;;;;;42.70;22.20;;;;;;;0.19;100.00;101585.81;5016198;28;20076;-70
2024/01/13 01:13:47;;;;;;;48.00;23.25;;;;;;;0.23;100.00;101579.81;5036010;28;20053;-71
2024/01/13 01:16:15;;;;;;;47.33;25.17;;;;;;;0.27;100.00;101576.41;5038832;28;20045;-69
2024/01/13 01:18:46;;;;;;;46.63;23.27;;;;;;;0.37;100.00;101580.00;5029627;28;20049;-70
2024/01/13 01:21:16;;;;;;;49.42;24.20;;;;;;;0.38;100.00;101581.75;5024283;28;20414;-70
2024/01/13 01:23:48;;;;;;;45.30;23.70;;;;;;;0.40;100.00;101581.78;5025225;28;20695;-69
2024/01/13 01:26:17;;;;;;;45.92;24.85;;;;;;;0.42;100.00;101580.06;5029927;28;20375;-69
2024/01/13 01:28:46;;;;;;;50.83;25.40;;;;;;;0.31;100.00;101562.56;5034912;28;20056;-70
2024/01/13 01:31:18;;;;;;;46.88;24.50;;;;;;;0.31;100.00;101565.19;5026934;28;20071;-68
2024/01/13 01:33:46;;;;;;;48.22;25.13;;;;;;;0.20;100.00;101569.34;5025507;28;20505;-70
2024/01/13 01:36:17;;;;;;;45.03;23.88;;;;;;;0.10;100.00;101570.09;5021604;28;20407;-68
2024/01/13 01:38:45;;;;;;;43.53;23.10;;;;;;;0.06;100.00;101568.28;5039319;28;20069;-71
2024/01/13 01:41:21;;;;;;;45.33;22.92;;;;;;;0.13;100.00;101562.31;5022132;28;20045;-72
2024/01/13 01:43:49;;;;;;;49.28;23.95;;;;;;;0.07;100.00;101538.78;5011792;28;20052;-69
2024/01/13 01:46:20;;;;;;;49.63;23.45;;;;;;;0.26;100.00;101558.16;5019208;28;20049;-70
2024/01/13 01:48:57;;;;;;;46.58;23.77;;;;;;;0.25;100.00;101565.09;5031622;28;20474;-71
2024/01/13 01:51:27;;;;;;;47.58;23.70;;;;;;;0.19;100.00;101556.28;5007429;28;20053;-71
2024/01/13 01:53:59;;;;;;;52.67;24.75;;;;;;;0.24;100.00;101552.03;5026430;28;20096;-71
2024/01/13 01:56:34;;;;;;;46.80;24.87;;;;;;;0.28;100.00;101559.91;5042780;28;20054;-69
2024/01/13 01:59:03;;;;;;;47.33;23.92;;;;;;;0.29;100.00;101556.47;5028953;28;20468;-71
2024/01/13 02:01:33;;;;;;;43.33;22.90;;;;;;;0.34;100.00;101559.97;5024581;28;20304;-70
2024/01/13 02:04:03;;;;;;;44.17;23.48;;;;;;;0.20;100.00;101550.22;5031545;28;20059;-70
2024/01/13 02:06:33;;;;;;;48.58;23.48;;;;;;;0.02;100.00;101545.66;5013753;28;20045;-69
2024/01/13 02:09:02;;;;;;;47.80;24.10;;;;;;;-0.07;100.00;101555.94;5017533;28;20037;-69
2024/01/13 02:11:33;;;;;;;53.85;25.95;;;;;;;-0.20;100.00;101557.50;5030045;28;20041;-69
2024/01/13 02:14:01;;;;;;;48.55;25.30;;;;;;;-0.30;100.00;101542.56;5007203;28;20165;-69
2024/01/13 02:16:30;;;;;;;49.75;25.50;;;;;;;-0.28;100.00;101560.81;5025040;28;20564;-70
2024/01/13 02:18:58;;;;;;;48.78;25.05;;;;;;;-0.28;100.00;101547.78;5019687;28;20054;-71
2024/01/13 02:21:27;;;;;;;51.55;25.45;;;;;;;-0.23;100.00;101549.63;5044901;28;20095;-72
2024/01/13 02:23:56;;;;;;;55.03;25.67;;;;;;;-0.23;100.00;101546.16;5016681;28;20410;-70
2024/01/13 02:26:28;;;;;;;49.47;25.05;;;;;;;-0.22;100.00;101529.69;5028197;28;20042;-69
2024/01/13 02:28:57;;;;;;;53.13;26.73;;;;;;;-0.25;100.00;101533.09;4991125;28;20058;-70
2024/01/13 02:31:25;;;;;;;57.80;27.75;;;;;;;-0.27;100.00;101527.00;5043423;28;20041;-68
2024/01/13 02:33:54;;;;;;;48.05;25.27;;;;;;;-0.20;100.00;101533.19;5029983;28;20049;-70
2024/01/13 02:36:24;;;;;;;51.40;25.30;;;;;;;-0.09;100.00;101514.25;5029652;28;20053;-69
2024/01/13 02:38:53;;;;;;;52.97;26.48;;;;;;;-0.14;100.00;101502.88;5006695;28;20050;-68
2024/01/13 02:41:25;;;;;;;51.88;26.08;;;;;;;0.05;100.00;101518.78;5034156;28;20045;-71
2024/01/13 02:43:53;;;;;;;51.65;26.38;;;;;;;0.01;100.00;101523.06;5022441;28;20422;-70
2024/01/13 02:46:23;;;;;;;53.72;27.80;;;;;;;-0.09;100.00;101529.88;5018320;28;20049;-70
2024/01/13 02:48:54;;;;;;;55.30;27.23;;;;;;;-0.17;100.00;101533.25;5003093;28;20148;-70
2024/01/13 02:51:23;;;;;;;53.60;27.63;;;;;;;-0.25;100.00;101530.50;5031751;28;20149;-73
2024/01/13 02:53:51;;;;;;;59.53;28.02;;;;;;;-0.22;100.00;101527.94;5006750;28;20123;-71
2024/01/13 02:56:22;;;;;;;60.90;29.05;;;;;;;-0.22;100.00;101524.47;5010025;28;20066;-71
2024/01/13 02:58:53;;;;;;;61.50;28.58;;;;;;;-0.38;100.00;101513.84;5030434;28;20538;-70
2024/01/13 03:01:23;;;;;;;59.30;28.10;;;;;;;-0.34;100.00;101519.97;5043998;28;20121;-70
2024/01/13 03:03:52;;;;;;;58.42;28.92;;;;;;;-0.31;100.00;101522.59;5024632;28;20045;-71
2024/01/13 03:06:23;;;;;;;60.65;29.50;;;;;;;-0.32;100.00;101526.06;5040735;28;20049;-70
2024/01/13 03:08:53;;;;;;;59.08;28.45;;;;;;;-0.35;100.00;101520.81;5032788;28;20053;-69
2024/01/13 03:11:22;;;;;;;64.55;30.25;;;;;;;-0.42;100.00;101521.56;5038390;28;20067;-69
2024/01/13 03:13:55;;;;;;;59.85;28.70;;;;;;;-0.61;100.00;101503.91;5017687;28;20060;-70
2024/01/13 03:16:26;;;;;;;63.40;29.67;;;;;;;-0.50;100.00;101517.97;5014859;28;20037;-69
2024/01/13 03:18:55;;;;;;;60.90;29.30;;;;;;;-0.53;100.00;101512.72;5021438;28;20517;-70
2024/01/13 03:21:24;;;;;;;60.80;28.43;;;;;;;-0.54;100.00;101497.97;5015000;28;20540;-68
2024/01/13 03:23:53;;;;;;;58.30;28.88;;;;;;;-0.38;100.00;101502.53;5033427;28;20530;-70
2024/01/13 03:26:22;;;;;;;60.47;28.80;;;;;;;-0.28;100.00;101503.53;5026958;28;20414;-70
2024/01/13 03:28:53;;;;;;;63.70;29.23;;;;;;;-0.26;100.00;101494.03;5020662;28;20049;-70
2024/01/13 03:31:22;;;;;;;61.45;31.13;;;;;;;-0.14;100.00;101491.59;5037171;28;20577;-69
2024/01/13 03:33:50;;;;;;;56.58;27.27;;;;;;;-0.08;100.00;101495.19;5023253;28;20136;-69
2024/01/13 03:36:22;;;;;;;59.00;28.50;;;;;;;-0.18;100.00;101488.09;5027621;28;20082;-71
2024/01/13 03:38:53;;;;;;;58.42;28.33;;;;;;;-0.22;100.00;101478.50;5023454;28;20703;-70
2024/01/13 03:41:22;;;;;;;59.50;29.27;;;;;;;-0.17;100.00;101487.25;5032904;28;20050;-71
2024/01/13 03:43:50;;;;;;;56.38;28.63;;;;;;;-0.17;100.00;101486.38;5024512;28;20538;-70
2024/01/13 03:46:18;;;;;;;62.00;29.40;;;;;;;-0.11;100.00;101473.44;5023240;28;20049;-70
2024/01/13 03:48:49;;;;;;;59.85;29.65;;;;;;;-0.04;100.00;101473.53;5022904;28;20038;-69
2024/01/13 03:51:17;;;;;;;56.78;28.58;;;;;;;0.00;100.00;101467.50;5029207;28;20044;-69
2024/01/13 03:53:45;;;;;;;60.50;29.40;;;;;;;-0.07;100.00;101473.50;5046337;28;20044;-70
2024/01/13 03:56:16;;;;;;;56.53;27.83;;;;;;;-0.11;100.00;101470.81;5045926;28;20532;-69
2024/01/13 03:58:46;;;;;;;58.45;28.33;;;;;;;-0.08;100.00;101468.25;5033761;28;20034;-69
2024/01/13 04:01:16;;;;;;;;;;;;;;;-0.03;100.00;101464.88;5044426;28;20525;-71
2024/01/13 04:03:49;;;;;;;55.63;27.42;;;;;;;0.02;100.00;101459.72;5041560;28;19960;-70
2024/01/13 04:06:17;;;;;;;57.72;28.17;;;;;;;0.05;100.00;101457.16;5026976;28;20038;-69
2024/01/13 04:08:46;;;;;;;57.10;28.45;;;;;;;0.05;100.00;101457.16;5016748;28;20042;-69
2024/01/13 04:11:14;;;;;;;60.75;29.88;;;;;;;0.00;100.00;101453.63;5027898;28;20068;-70
2024/01/13 04:13:44;;;;;;;55.85;28.77;;;;;;;-0.09;100.00;101453.50;5033283;28;20104;-69
2024/01/13 04:16:12;;;;;;;60.28;29.65;;;;;;;-0.24;100.00;101442.88;5031199;28;20073;-69
2024/01/13 04:18:41;;;;;;;59.05;28.98;;;;;;;-0.28;100.00;101447.16;5026398;28;20109;-70
2024/01/13 04:21:14;;;;;;;59.72;29.02;;;;;;;-0.37;100.00;101442.72;5025159;28;20041;-69
2024/01/13 04:23:51;;;;;;;62.42;28.65;;;;;;;-0.34;100.00;101438.41;5013664;28;20068;-69
2024/01/13 04:26:21;;;;;;;60.80;29.48;;;;;;;-0.33;100.00;101435.84;5033003;28;20149;-72
2024/01/13 04:28:50;;;;;;;63.55;29.73;;;;;;;-0.34;100.00;101430.59;5041740;28;20053;-70
2024/01/13 04:31:18;;;;;;;61.35;29.50;;;;;;;-0.17;100.00;101432.59;5052049;28;20116;-70
2024/01/13 04:33:49;;;;;;;57.08;27.58;;;;;;;-0.11;100.00;101434.38;5037661;28;20050;-69
2024/01/13 04:36:22;;;;;;;59.63;29.08;;;;;;;-0.03;100.00;101432.75;5025435;28;20099;-69
2024/01/13 04:38:50;;;;;;;56.53;28.33;;;;;;;0.00;100.00;101417.19;5020763;28;20091;-69
2024/01/13 04:41:18;;;;;;;59.90;28.45;;;;;;;0.02;100.00;101420.66;5027291;28;20099;-69
2024/01/13 04:43:47;;;;;;;58.33;28.15;;;;;;;-0.05;100.00;101417.13;5033048;28;20115;-70
2024/01/13 04:46:16;;;;;;;59.13;29.02;;;;;;;-0.06;100.00;101407.56;5020406;28;20071;-70
2024/01/13 04:48:44;;;;;;;59.90;29.25;;;;;;;-0.03;100.00;101412.81;5035609;28;20049;-69
2024/01/13 04:51:16;;;;;;;58.20;29.38;;;;;;;-0.03;100.00;101411.94;5025276;28;20126;-68
2024/01/13 04:53:46;;;;;;;56.50;27.92;;;;;;;-0.02;100.00;101414.56;5030989;28;20168;-70
2024/01/13 04:56:16;;;;;;;56.88;28.42;;;;;;;-0.03;100.00;101410.19;5029539;28;20055;-70
2024/01/13 04:58:45;;;;;;;54.67;28.25;;;;;;;0.07;100.00;101412.91;5023920;28;20684;-69
2024/01/13 05:01:17;;;;;;;55.20;28.23;;;;;;;0.07;100.00;101416.38;5025635;28;20805;-69
2024/01/13 05:03:45;;;;;;;55.63;27.73;;;;;;;-0.01;100.00;101410.22;5029709;28;20053;-69
2024/01/13 05:06:15;;;;;;;57.33;27.45;;;;;;;-0.01;100.00;101407.63;5025484;28;20087;-69
2024/01/13 05:08:47;;;;;;;55.67;27.52;;;;;;;-0.01;100.00;101402.41;5022703;28;20056;-70
2024/01/13 05:11:19;;;;;;;55.45;28.50;;;;;;;-0.05;100.00;101396.28;5039776;28;20049;-70
2024/01/13 05:13:47;;;;;;;59.10;28.88;;;;;;;0.05;100.00;101394.66;5027889;28;20052;-70
2024/01/13 05:16:16;;;;;;;56.78;28.02;;;;;;;0.03;100.00;101405.91;5030256;28;20056;-71
2024/01/13 05:18:44;;;;;;;58.55;28.77;;;;;;;-0.08;100.00;101397.97;5036856;28;20057;-70
2024/01/13 05:21:13;;;;;;;55.55;27.88;;;;;;;-0.08;100.00;101400.56;5026521;28;20045;-71
2024/01/13 05:23:41;;;;;;;55.80;28.42;;;;;;;-0.04;100.00;101394.56;5027418;28;20632;-68
2024/01/13 05:26:12;;;;;;;56.80;28.02;;;;;;;-0.06;100.00;101376.31;4995873;28;20038;-71
2024/01/13 05:28:42;;;;;;;56.65;29.77;;;;;;;-0.12;100.00;101357.13;5042030;28;20045;-70
2024/01/13 05:31:09;;;;;;;54.42;28.42;;;;;;;-0.06;100.00;101376.31;5006428;28;20628;-70
2024/01/13 05:33:37;;;;;;;57.17;29.15;;;;;;;-0.08;100.00;101380.63;5028525;28;20061;-71
2024/01/13 05:36:06;;;;;;;57.75;29.38;;;;;;;-0.07;100.00;101377.16;5020778;28;20045;-69
2024/01/13 05:38:34;;;;;;;57.20;29.13;;;;;;;-0.01;100.00;101381.59;5031463;28;20045;-69
2024/01/13 05:41:02;;;;;;;57.97;28.25;;;;;;;0.04;100.00;101377.28;5041753;28;20052;-71
2024/01/13 05:43:33;;;;;;;56.80;27.95;;;;;;;0.05;100.00;101362.53;5030932;28;20034;-70
2024/01/13 05:46:01;;;;;;;43.50;22.13;;;;;;;0.07;100.00;101371.22;5044802;28;20056;-69
2024/01/13 05:48:31;;;;;;;59.13;29.65;;;;;;;0.06;100.00;101365.16;5042488;28;20056;-69
2024/01/13 05:51:00;;;;;;;55.03;28.77;;;;;;;0.01;100.00;101356.41;5028202;28;20046;-71
2024/01/13 05:53:29;;;;;;;58.55;29.45;;;;;;;-0.04;100.00;101347.69;5027352;28;20057;-70
2024/01/13 05:55:57;;;;;;;59.05;29.00;;;;;;;-0.13;100.00;101343.25;5028822;28;20053;-69
2024/01/13 05:58:25;;;;;;;57.60;29.02;;;;;;;-0.10;100.00;101347.59;5028998;28;20060;-69
2024/01/13 06:00:55;;;;;;;57.85;30.13;;;;;;;-0.04;100.00;101356.38;5021748;28;20103;-71
2024/01/13 06:03:23;;;;;;;60.78;29.40;;;;;;;-0.14;100.00;101356.22;5029069;28;20553;-69
2024/01/13 06:05:52;;;;;;;58.75;29.73;;;;;;;-0.15;100.00;101357.09;5024167;28;20041;-70
2024/01/13 06:08:20;;;;;;;59.28;29.83;;;;;;;-0.08;100.00;101356.31;5036782;28;20115;-70
2024/01/13 06:10:52;;;;;;;59.20;29.25;;;;;;;-0.15;100.00;101347.53;5016858;28;20248;-70
2024/01/13 06:13:20;;;;;;;57.22;29.50;;;;;;;-0.17;100.00;101345.81;5026420;28;20382;-69
2024/01/13 06:15:48;;;;;;;58.60;29.27;;;;;;;-0.04;100.00;101347.69;5047629;28;20053;-70
2024/01/13 06:18:18;;;;;;;58.72;30.63;;;;;;;-0.02;100.00;101345.97;5037659;28;20041;-70
2024/01/13 06:20:48;;;;;;;57.30;30.27;;;;;;;-0.09;100.00;101346.75;5034747;28;20166;-70
2024/01/13 06:23:17;;;;;;;59.53;30.70;;;;;;;-0.04;100.00;101342.47;5037962;28;20037;-70
2024/01/13 06:25:45;;;;;;;55.95;28.95;;;;;;;-0.03;100.00;101339.03;5025251;28;20270;-72
2024/01/13 06:28:17;;;;;;;56.33;28.73;;;;;;;-0.02;100.00;101325.16;5028294;28;20049;-70
2024/01/13 06:30:45;;;;;;;57.40;29.40;;;;;;;0.05;100.00;101326.06;5019125;28;20053;-70
2024/01/13 06:33:14;;;;;;;59.42;29.27;;;;;;;0.07;100.00;101333.06;5025097;28;20105;-68
2024/01/13 06:35:45;;;;;;;62.25;30.17;;;;;;;0.09;100.00;101338.28;5037863;28;20087;-70
2024/01/13 06:38:13;;;;;;;57.23;29.73;;;;;;;0.07;100.00;101320.03;5015199;28;20220;-69
2024/01/13 06:40:41;;;;;;;55.38;28.85;;;;;;;0.15;100.00;101328.81;5024402;28;20041;-69
2024/01/13 06:43:10;;;;;;;60.17;29.08;;;;;;;0.25;100.00;101330.63;5046259;28;20148;-71
2024/01/13 06:45:39;;;;;;;59.15;28.55;;;;;;;0.24;100.00;101328.88;5051786;28;20087;-70
2024/01/13 06:48:10;;;;;;;60.95;29.88;;;;;;;0.19;100.00;101317.53;5032225;28;20569;-70
2024/01/13 06:50:38;;;;;;;59.72;29.83;;;;;;;0.17;100.00;101328.78;5040578;28;20502;-69
2024/01/13 06:53:19;;;;;;;56.50;28.97;;;;;;;0.17;100.00;101328.78;5036222;28;20053;-70
2024/01/13 06:55:48;;;;;;;63.50;30.92;;;;;;;0.22;100.00;101338.41;5001187;28;20061;-71
2024/01/13 06:58:19;;;;;;;62.05;29.92;;;;;;;0.13;100.00;101330.53;5022234;28;20049;-69
2024/01/13 07:00:51;;;;;;;62.88;30.80;;;;;;;0.00;100.00;101318.25;5028366;28;20090;-68
2024/01/13 07:03:20;;;;;;;63.33;30.67;;;;;;;-0.11;100.00;101320.69;5024696;28;20087;-71
2024/01/13 07:05:48;;;;;;;62.80;31.30;;;;;;;-0.20;100.00;101322.34;5027317;28;20042;-70
2024/01/13 07:08:16;;;;;;;63.25;31.40;;;;;;;-0.24;100.00;101315.34;5028164;28;20046;-69
2024/01/13 07:10:51;;;;;;;66.32;30.45;;;;;;;-0.31;100.00;101298.78;5000481;28;20112;-68
2024/01/13 07:13:18;;;;;;;65.18;30.40;;;;;;;-0.17;100.00;101312.84;5042147;28;20045;-69
2024/01/13 07:15:47;;;;;;;60.70;29.30;;;;;;;-0.12;100.00;101318.06;5053782;28;20068;-69
2024/01/13 07:18:15;;;;;;;66.97;31.63;;;;;;;-0.13;100.00;101321.53;5033783;28;20065;-70
2024/01/13 07:20:43;;;;;;;65.38;31.33;;;;;;;-0.28;100.00;101311.81;5028058;28;20129;-70
2024/01/13 07:23:13;;;;;;;63.95;31.60;;;;;;;-0.29;100.00;101324.81;5032540;28;20113;-69
2024/01/13 07:25:43;;;;;;;65.55;31.77;;;;;;;-0.33;100.00;101329.13;5028882;28;20034;-69
2024/01/13 07:28:14;;;;;;;66.53;31.63;;;;;;;-0.40;100.00;101325.56;5044042;28;20063;-70
2024/01/13 07:30:42;;;;;;;64.43;30.90;;;;;;;-0.37;100.00;101329.94;5025027;28;20052;-71
2024/01/13 07:33:10;;;;;;;61.53;29.02;;;;;;;-0.26;100.00;101330.06;5032406;28;20065;-71
2024/01/13 07:35:39;;;;;;;59.78;28.67;;;;;;;-0.22;100.00;101337.06;5037579;28;20053;-69
2024/01/13 07:38:08;;;;;;;67.30;30.33;;;;;;;-0.22;100.00;101321.44;5033008;28;20064;-71
2024/01/13 07:40:36;;;;;;;63.40;29.55;;;;;;;-0.04;100.00;101337.28;5019227;28;20041;-70
2024/01/13 07:43:05;;;;;;;60.80;29.40;;;;;;;-0.02;100.00;101309.53;5032102;28;20156;-69
2024/01/13 07:45:35;;;;;;;57.78;28.50;;;;;;;0.13;100.00;101325.31;5032256;28;20104;-70
2024/01/13 07:48:05;;;;;;;43.13;21.92;;;;;;;0.08;100.00;101328.72;5031144;28;20046;-69
2024/01/13 07:50:33;;;;;;;60.55;28.58;;;;;;;-0.08;100.00;101325.06;5036892;28;20051;-70
2024/01/13 07:53:03;;;;;;;63.10;30.17;;;;;;;-0.18;100.00;101329.31;5026599;28;20045;-71
2024/01/13 07:55:33;;;;;;;56.92;27.95;;;;;;;-0.13;100.00;101331.94;5027217;28;20699;-71
2024/01/13 07:58:01;;;;;;;61.53;28.90;;;;;;;-0.05;100.00;101320.78;5021937;28;20129;-70
2024/01/13 08:00:29;;;;;;;56.45;27.98;;;;;;;0.07;100.00;101320.03;5020417;28;20049;-69
2024/01/13 08:03:00;;;;;;;56.17;28.38;;;;;;;0.15;100.00;101318.41;5029651;28;20118;-70
2024/01/13 08:05:31;;;;;;;56.75;27.70;;;;;;;0.18;100.00;101314.91;5028668;28;20038;-70
2024/01/13 08:08:01;;;;;;;56.15;28.15;;;;;;;0.15;100.00;101318.41;5012216;28;20048;-71
2024/01/13 08:10:30;;;;;;;56.03;28.17;;;;;;;0.15;100.00;101307.09;5031854;28;20053;-70
2024/01/13 08:13:00;;;;;;;55.17;27.17;;;;;;;0.24;100.00;101302.84;5043014;28;20422;-69
2024/01/13 08:15:28;;;;;;;53.67;28.00;;;;;;;0.33;100.00;101296.81;5026018;28;20272;-70
2024/01/13 08:18:02;;;;;;;56.28;27.48;;;;;;;0.35;100.00;101297.72;5026876;28;20038;-71
2024/01/13 08:20:30;;;;;;;53.63;26.52;;;;;;;0.29;100.00;101298.56;5031127;28;20109;-70
2024/01/13 08:22:59;;;;;;;54.75;27.23;;;;;;;0.39;100.00;101299.50;5042679;28;20540;-72
2024/01/13 08:25:27;;;;;;;55.83;27.30;;;;;;;0.52;100.00;101303.06;5027852;28;20575;-71
2024/01/13 08:27:56;;;;;;;50.95;26.42;;;;;;;0.54;100.00;101293.53;5047500;28;20076;-70
2024/01/13 08:30:24;;;;;;;54.78;25.98;;;;;;;0.44;100.00;101281.31;5004444;28;20077;-68
2024/01/13 08:32:57;;;;;;;53.88;26.85;;;;;;;0.60;100.00;101304.03;5043203;28;20518;-69
2024/01/13 08:35:30;;;;;;;49.97;24.90;;;;;;;0.52;100.00;101274.41;5028211;28;20503;-72
2024/01/13 08:37:58;;;;;;;49.03;24.52;;;;;;;0.66;100.00;101291.03;5024646;28;20056;-72
2024/01/13 08:40:26;;;;;;;51.58;24.88;;;;;;;0.71;100.00;101294.53;5034030;28;20858;-71
2024/01/13 08:42:54;;;;;;;52.97;26.02;;;;;;;0.66;100.00;101289.28;5020263;28;20045;-69
2024/01/13 08:45:29;;;;;;;50.28;25.63;;;;;;;0.74;100.00;101284.16;5038841;28;20042;-71
2024/01/13 08:47:58;;;;;;;49.50;24.67;;;;;;;0.77;100.00;101293.72;5035861;28;20134;-68
2024/01/13 08:50:29;;;;;;;48.17;25.67;;;;;;;0.72;100.00;101279.78;5024398;28;20049;-69
2024/01/13 08:52:57;;;;;;;49.15;25.65;;;;;;;0.77;100.00;101286.78;5019095;28;20050;-69
2024/01/13 08:55:27;;;;;;;47.05;24.50;;;;;;;0.78;100.00;101285.06;5023425;28;20124;-70
2024/01/13 08:57:57;;;;;;;48.05;24.70;;;;;;;0.75;100.00;101267.66;5037608;28;20454;-71
2024/01/13 09:00:28;;;;;;;48.42;24.20;;;;;;;0.75;100.00;101266.78;5018236;28;20056;-70
2024/01/13 09:02:57;;;;;;;48.70;25.30;;;;;;;0.81;100.00;101270.28;5016386;28;20161;-69
2024/01/13 09:05:28;;;;;;;47.67;23.70;;;;;;;0.83;100.00;101271.16;5018082;28;20045;-71
2024/01/13 09:08:01;;;;;;;44.88;23.08;;;;;;;0.82;100.00;101256.38;5025497;28;20046;-71
2024/01/13 09:10:30;;;;;;;45.88;23.38;;;;;;;0.87;100.00;101252.06;5022156;28;20053;-69
2024/01/13 09:12:59;;;;;;;45.20;23.48;;;;;;;0.88;100.00;101248.59;5023174;28;20053;-69
2024/01/13 09:15:27;;;;;;;44.45;23.27;;;;;;;0.82;100.00;101245.06;5036246;28;20042;-69
2024/01/13 09:17:56;;;;;;;48.42;24.67;;;;;;;0.68;100.00;101260.63;5025722;28;20052;-68
2024/01/13 09:20:26;;;;;;;47.00;24.20;;;;;;;0.49;100.00;101257.00;5023158;28;20060;-70
2024/01/13 09:22:57;;;;;;;49.35;23.70;;;;;;;0.45;100.00;101264.81;5027987;28;20051;-68
2024/01/13 09:25:27;;;;;;;44.97;23.42;;;;;;;0.52;100.00;101261.38;5026582;28;20050;-70
2024/01/13 09:27:56;;;;;;;46.05;23.58;;;;;;;0.60;100.00;101260.59;5012150;28;20073;-69
2024/01/13 09:30:24;;;;;;;49.97;25.40;;;;;;;0.57;100.00;101250.13;5020875;28;20052;-69
2024/01/13 09:32:52;;;;;;;49.10;25.15;;;;;;;0.65;100.00;101250.19;5019096;28;20198;-69
2024/01/13 09:35:21;;;;;;;49.83;24.27;;;;;;;0.70;100.00;101251.09;5007716;28;20041;-69
2024/01/13 09:37:49;;;;;;;47.75;24.10;;;;;;;0.81;100.00;101231.16;5026689;28;20128;-69
2024/01/13 09:40:19;;;;;;;45.58;23.48;;;;;;;0.87;100.00;101205.16;5028757;28;20064;-69
2024/01/13 09:42:56;;;;;;;50.60;25.52;;;;;;;0.88;100.00;101182.56;5030933;28;20049;-70
2024/01/13 09:45:25;;;;;;;50.90;24.38;;;;;;;0.89;100.00;101190.38;5014276;28;20114;-71
2024/01/13 09:47:59;;;;;;;49.95;24.42;;;;;;;0.76;100.00;101188.59;5032062;28;20055;-71
2024/01/13 09:50:28;;;;;;;51.22;24.75;;;;;;;0.60;100.00;101187.63;5021152;28;20044;-71
2024/01/13 09:52:57;;;;;;;52.45;24.42;;;;;;;0.61;100.00;101225.84;5012146;28;20065;-69
2024/01/13 09:55:31;;;;;;;46.50;23.87;;;;;;;0.58;100.00;101248.41;5026525;28;20380;-69
2024/01/13 09:57:59;;;;;;;50.60;24.70;;;;;;;0.46;100.00;101256.16;5025167;28;20055;-69
2024/01/13 10:00:30;;;;;;;53.92;26.27;;;;;;;0.24;100.00;101250.75;5010978;28;20144;-68
2024/01/13 10:02:59;;;;;;;50.38;23.90;;;;;;;0.30;100.00;101248.22;5022688;28;20041;-69
2024/01/13 10:05:29;;;;;;;48.67;24.73;;;;;;;0.27;100.00;101240.34;5042426;28;20045;-69
2024/01/13 10:07:58;;;;;;;47.15;24.38;;;;;;;0.24;100.00;101232.50;5015200;28;20053;-70
2024/01/13 10:10:29;;;;;;;50.17;24.25;;;;;;;0.38;100.00;101230.00;5033606;28;20138;-69
2024/01/13 10:12:57;;;;;;;48.75;23.45;;;;;;;0.42;100.00;101218.75;5035260;28;20050;-69
2024/01/13 10:15:29;;;;;;;50.40;24.40;;;;;;;0.48;100.00;101205.75;5041859;28;20120;-69
2024/01/13 10:17:59;;;;;;;46.80;23.65;;;;;;;0.55;100.00;101198.88;5005880;28;20046;-68
2024/01/13 10:20:29;;;;;;;44.33;22.85;;;;;;;0.70;100.00;101197.22;5015323;28;20084;-70
2024/01/13 10:22:59;;;;;;;44.85;23.17;;;;;;;0.77;100.00;101190.31;5034080;28;20115;-69
2024/01/13 10:25:29;;;;;;;45.20;24.13;;;;;;;0.84;100.00;101179.06;5022936;28;20564;-70
2024/01/13 10:27:59;;;;;;;47.38;23.05;;;;;;;0.95;100.00;101177.34;5023007;28;20069;-69
2024/01/13 10:30:28;;;;;;;50.83;22.92;;;;;;;1.03;100.00;101185.22;5019375;28;20052;-69
2024/01/13 10:32:59;;;;;;;47.97;24.27;;;;;;;0.90;100.00;101168.66;5028791;28;20676;-69
2024/01/13 10:35:28;;;;;;;45.60;23.23;;;;;;;0.89;100.00;101159.09;5049347;28;20501;-71
2024/01/13 10:37:58;;;;;;;41.88;22.40;;;;;;;1.00;100.00;101152.19;5037608;28;20478;-69
2024/01/13 10:40:27;;;;;;;43.60;22.42;;;;;;;1.07;100.00;101142.66;5032536;28;20057;-70
2024/01/13 10:42:57;;;;;;;46.20;23.00;;;;;;;1.11;100.00;101141.78;5011804;28;20185;-69
2024/01/13 10:45:28;;;;;;;42.50;22.17;;;;;;;1.20;100.00;101136.59;5030873;28;20132;-69
2024/01/13 10:48:04;;;;;;;36.55;21.00;;;;;;;1.23;100.00;101102.69;5027179;28;20060;-70
2024/01/13 10:50:36;;;;;;;43.88;22.05;;;;;;;1.25;100.00;101079.22;5029959;28;20046;-69
2024/01/13 10:53:15;;;;;;;40.50;21.30;;;;;;;1.35;100.00;101078.38;5019672;28;20124;-71
2024/01/13 10:55:43;;;;;;;39.75;20.77;;;;;;;1.44;100.00;101080.97;5044856;28;20054;-70
2024/01/13 10:58:16;;;;;;;39.80;20.63;;;;;;;1.47;100.00;101085.31;5027954;28;20458;-71
2024/01/13 11:00:44;;;;;;;39.45;20.13;;;;;;;1.54;100.00;101110.59;5026973;28;20048;-69
2024/01/13 11:03:16;;;;;;;36.65;20.42;;;;;;;1.56;100.00;101116.69;5012263;28;20041;-70
2024/01/13 11:05:49;;;;;;;36.15;19.55;;;;;;;1.60;100.00;101124.50;5037254;28;20049;-72
2024/01/13 11:08:20;;;;;;;36.40;20.27;;;;;;;1.42;100.00;101150.56;5027832;28;20056;-71
2024/01/13 11:10:50;;;;;;;34.38;18.13;;;;;;;1.09;100.00;101137.44;5043520;28;20050;-70
2024/01/13 11:13:22;;;;;;;;;;;;;;;1.10;100.00;101147.88;5025572;28;20101;-70
2024/01/13 11:15:57;;;;;;;32.13;17.85;;;;;;;1.09;100.00;101138.31;5023752;28;19929;-71
2024/01/13 11:18:27;;;;;;;35.83;18.60;;;;;;;1.09;100.00;101134.84;5030611;28;20033;-71